25 | 02 | 2024

Klimadaten

Klimadaten von der Klimastation Reinstorf   ( 2m Messungen )  

Datum Zeit Temp.Außen Temp.min Temp.max BodenTemp 1 BodenTemp 2 BodenTemp 3 BodenTemp 4 Feuchte Auße BlattFeu 1 BlattFeu 2 Bod.Feucht 1 Luftdruck Regen Wind Richtung Richtung Sonnenschein Zeit Temp. A ET UV Solar Taupunkt Windchill Windböen
24.02.24 01:00:00 3,8 °C 3,8 °C 4,2 °C 2,2 °C 3,3 °C 5,0 °C 6,7 °C 85,00% 0 lf 0 lf 117 cb 999,9 hPa 0,0 mm 6,4 km/h (2 Bft) SO 135 ° 0 min 0 min 0,000 mm 0,0 UV-I 0 W/m² 1,5 °C 2,2 °C 17,7 km/h (3 Bft)
24.02.24 01:30:00 3,2 °C 3,2 °C 3,8 °C 1,1 °C 3,3 °C 4,4 °C 6,7 °C 86,00% 1 lf 0 lf 114 cb 999,8 hPa 0,0 mm 4,8 km/h (1 Bft) S-SO 157 ° 0 min 0 min 0,000 mm 0,0 UV-I 0 W/m² 1,1 °C 2,1 °C 11,3 km/h (2 Bft)
24.02.24 02:00:00 3,1 °C 2,9 °C 3,2 °C 1,1 °C 3,3 °C 4,4 °C 6,7 °C 87,00% 2 lf 0 lf 114 cb 999,9 hPa 0,0 mm 6,4 km/h (2 Bft) SO 135 ° 0 min 0 min 0,000 mm 0,0 UV-I 0 W/m² 1,2 °C 1,2 °C 11,3 km/h (2 Bft)
24.02.24 02:30:00 2,8 °C 2,8 °C 3,1 °C 1,1 °C 2,8 °C 3,9 °C 6,7 °C 87,00% 2 lf 0 lf 116 cb 999,9 hPa 0,0 mm 4,8 km/h (1 Bft) SO 135 ° 0 min 0 min 0,000 mm 0,0 UV-I 0 W/m² 0,9 °C 1,7 °C 12,9 km/h (3 Bft)
24.02.24 03:00:00 2,7 °C 2,7 °C 2,8 °C 0,6 °C 2,8 °C 3,9 °C 6,7 °C 88,00% 3 lf 0 lf 113 cb 999,8 hPa 0,0 mm 4,8 km/h (1 Bft) SO 135 ° 0 min 0 min 0,000 mm 0,0 UV-I 0 W/m² 0,9 °C 1,6 °C 14,5 km/h (3 Bft)
24.02.24 03:30:00 1,3 °C 1,3 °C 2,7 °C -0,6 °C 2,2 °C 3,9 °C 6,7 °C 88,00% 4 lf 0 lf 109 cb 999,7 hPa 0,0 mm 1,6 km/h (1 Bft) O-SO 112 ° 0 min 0 min 0,000 mm 0,0 UV-I 0 W/m² -0,5 °C 1,3 °C 9,7 km/h (2 Bft)
24.02.24 04:00:00 0,7 °C 0,7 °C 1,4 °C -1,1 °C 2,2 °C 3,9 °C 6,1 °C 88,00% 0 lf 0 lf 108 cb 999,7 hPa 0,0 mm 1,6 km/h (1 Bft) SO 135 ° 0 min 0 min 0,000 mm 0,0 UV-I 0 W/m² -1,1 °C 0,7 °C 11,3 km/h (2 Bft)
24.02.24 04:30:00 -0,4 °C -0,4 °C 0,7 °C -1,7 °C 2,2 °C 3,3 °C 6,1 °C 88,00% 0 lf 0 lf 106 cb 999,9 hPa 0,0 mm 1,6 km/h (1 Bft) NW 315 ° 0 min 15 min 0,000 mm 0,0 UV-I 0 W/m² -2,1 °C -0,4 °C 6,4 km/h (2 Bft)
24.02.24 05:00:00 -0,6 °C -0,7 °C -0,4 °C -1,7 °C 1,7 °C 3,3 °C 6,1 °C 89,00% 0 lf 0 lf 107 cb 999,9 hPa 0,0 mm 1,6 km/h (1 Bft) W-NW 292 ° 0 min 15 min 0,000 mm 0,0 UV-I 0 W/m² -2,2 °C -0,7 °C 4,8 km/h (1 Bft)
24.02.24 05:30:00 -0,4 °C -0,8 °C -0,4 °C -1,7 °C 1,7 °C 3,3 °C 6,1 °C 90,00% 0 lf 0 lf 107 cb 999,9 hPa 0,0 mm 1,6 km/h (1 Bft) W-NW 292 ° 0 min 15 min 0,000 mm 0,0 UV-I 0 W/m² -1,8 °C -0,8 °C 4,8 km/h (1 Bft)
24.02.24 06:00:00 -0,2 °C -0,4 °C -0,1 °C -1,7 °C 1,7 °C 2,8 °C 6,1 °C 90,00% 0 lf 0 lf 108 cb 999,9 hPa 0,0 mm 3,2 km/h (1 Bft) O 90 ° 0 min 15 min 0,000 mm 0,0 UV-I 0 W/m² -1,6 °C -0,4 °C 6,4 km/h (2 Bft)
24.02.24 06:30:00 -0,7 °C -0,7 °C -0,2 °C -2,2 °C 1,7 °C 2,8 °C 6,1 °C 90,00% 0 lf 0 lf 106 cb 1000,2 hPa 0,0 mm 1,6 km/h (1 Bft) W 270 ° 0 min 15 min 0,000 mm 0,0 UV-I 0 W/m² -2,1 °C -0,7 °C 3,2 km/h (1 Bft)
24.02.24 07:00:00 -1,2 °C -1,2 °C -0,7 °C -2,2 °C 1,7 °C 2,8 °C 5,6 °C 90,00% 0 lf 0 lf 107 cb 1000,5 hPa 0,0 mm 3,2 km/h (1 Bft) NW 315 ° 0 min 15 min 0,000 mm 0,0 UV-I 0 W/m² -2,6 °C -1,2 °C 4,8 km/h (1 Bft)
24.02.24 07:30:00 -1,2 °C -1,3 °C -1,1 °C -2,2 °C 1,7 °C 2,8 °C 5,6 °C 91,00% 0 lf 100 lf 108 cb 1000,8 hPa 0,0 mm 1,6 km/h (1 Bft) NO 45 ° 15 min 15 min 0,000 mm 0,0 UV-I 2 W/m² -2,5 °C -1,3 °C 4,8 km/h (1 Bft)
24.02.24 08:00:00 -1,0 °C -1,3 °C -0,9 °C -1,1 °C 1,7 °C 2,8 °C 5,6 °C 91,00% 0 lf 100 lf 113 cb 1000,9 hPa 0,0 mm 1,6 km/h (1 Bft) O-NO 67 ° 15 min 15 min 0,000 mm 0,0 UV-I 15 W/m² -2,3 °C -1,3 °C 4,8 km/h (1 Bft)
24.02.24 08:30:00 0,1 °C -1,0 °C 0,1 °C 1,7 °C 1,7 °C 2,2 °C 5,6 °C 92,00% 15 lf 100 lf 125 cb 1001,2 hPa 0,0 mm 1,6 km/h (1 Bft) SO 135 ° 15 min 0 min 0,000 mm 0,0 UV-I 35 W/m² -1,0 °C -1,0 °C 4,8 km/h (1 Bft)
24.02.24 09:00:00 2,7 °C 0,1 °C 2,7 °C 3,9 °C 1,7 °C 2,2 °C 5,6 °C 92,00% 15 lf 100 lf 137 cb 1001,3 hPa 0,0 mm 3,2 km/h (1 Bft) SO 135 ° 15 min 0 min 0,025 mm 0,0 UV-I 80 W/m² 1,5 °C 0,1 °C 12,9 km/h (3 Bft)
24.02.24 09:30:00 4,8 °C 2,7 °C 4,8 °C 6,1 °C 1,7 °C 2,8 °C 5,6 °C 88,00% 3 lf 100 lf 147 cb 1001,5 hPa 0,0 mm 8,0 km/h (2 Bft) S-SO 157 ° 15 min 0 min 0,000 mm 0,0 UV-I 191 W/m² 3,0 °C 0,4 °C 16,1 km/h (3 Bft)
24.02.24 10:00:00 6,0 °C 4,8 °C 6,1 °C 8,9 °C 2,8 °C 2,8 °C 5,0 °C 84,00% 0 lf 100 lf 160 cb 1001,4 hPa 0,0 mm 6,4 km/h (2 Bft) S-SO 157 ° 15 min 0 min 0,102 mm 0,0 UV-I 258 W/m² 3,5 °C 3,4 °C 12,9 km/h (3 Bft)
24.02.24 10:30:00 7,1 °C 6,1 °C 7,1 °C 12,2 °C 3,9 °C 3,3 °C 5,0 °C 80,00% 0 lf 100 lf 175 cb 1001,6 hPa 0,0 mm 6,4 km/h (2 Bft) S-SO 157 ° 15 min 0 min 0,000 mm 0,0 UV-I 307 W/m² 3,9 °C 4,9 °C 12,9 km/h (3 Bft)
24.02.24 11:00:00 8,4 °C 7,1 °C 8,4 °C 12,8 °C 5,0 °C 4,4 °C 5,0 °C 75,00% 0 lf 100 lf 176 cb 1002,0 hPa 0,0 mm 9,7 km/h (2 Bft) S-SO 157 ° 15 min 0 min 0,152 mm 0,0 UV-I 355 W/m² 4,2 °C 5,2 °C 20,9 km/h (4 Bft)
24.02.24 11:30:00 9,2 °C 8,2 °C 9,2 °C 12,8 °C 6,1 °C 5,6 °C 5,0 °C 73,00% 0 lf 100 lf 172 cb 1002,0 hPa 0,0 mm 11,3 km/h (2 Bft) S-SO 157 ° 15 min 0 min 0,000 mm 0,5 UV-I 372 W/m² 4,6 °C 6,2 °C 20,9 km/h (4 Bft)
24.02.24 12:00:00 9,1 °C 8,4 °C 9,3 °C 10,6 °C 6,7 °C 6,1 °C 5,0 °C 75,00% 0 lf 100 lf 160 cb 1002,1 hPa 0,0 mm 9,7 km/h (2 Bft) S-SO 157 ° 15 min 0 min 0,178 mm 0,2 UV-I 255 W/m² 4,9 °C 6,8 °C 19,3 km/h (3 Bft)
24.02.24 12:30:00 9,1 °C 8,9 °C 9,7 °C 10,6 °C 7,8 °C 6,1 °C 5,0 °C 73,00% 0 lf 100 lf 157 cb 1002,0 hPa 0,0 mm 9,7 km/h (2 Bft) S-SW 202 ° 15 min 0 min 0,000 mm 0,2 UV-I 295 W/m² 4,5 °C 7,4 °C 19,3 km/h (3 Bft)
24.02.24 13:00:00 10,3 °C 8,9 °C 10,8 °C 13,3 °C 8,9 °C 6,7 °C 5,6 °C 70,00% 0 lf 100 lf 167 cb 1002,1 hPa 0,0 mm 11,3 km/h (2 Bft) S 180 ° 15 min 0 min 0,203 mm 0,6 UV-I 465 W/m² 5,1 °C 7,1 °C 25,7 km/h (4 Bft)
24.02.24 13:30:00 11,2 °C 10,2 °C 11,2 °C 13,9 °C 9,4 °C 7,8 °C 5,6 °C 69,00% 0 lf 100 lf 168 cb 1002,0 hPa 0,0 mm 11,3 km/h (2 Bft) S 180 ° 15 min 0 min 0,000 mm 0,5 UV-I 396 W/m² 5,7 °C 10,2 °C 22,5 km/h (4 Bft)
24.02.24 14:00:00 10,6 °C 10,6 °C 11,5 °C 11,7 °C 9,4 °C 8,3 °C 5,6 °C 69,00% 0 lf 100 lf 154 cb 1002,2 hPa 0,0 mm 14,5 km/h (3 Bft) S 180 ° 15 min 0 min 0,229 mm 0,2 UV-I 323 W/m² 5,2 °C 10,6 °C 35,4 km/h (5 Bft)
24.02.24 14:30:00 10,3 °C 10,1 °C 10,5 °C 11,1 °C 9,4 °C 8,3 °C 5,6 °C 72,00% 0 lf 100 lf 150 cb 1002,3 hPa 0,0 mm 12,9 km/h (3 Bft) S-SW 202 ° 15 min 0 min 0,000 mm 0,0 UV-I 230 W/m² 5,5 °C 10,1 °C 32,2 km/h (5 Bft)
24.02.24 15:00:00 9,7 °C 9,7 °C 10,9 °C 9,4 °C 9,4 °C 8,3 °C 6,1 °C 73,00% 0 lf 100 lf 143 cb 1002,6 hPa 0,0 mm 14,5 km/h (3 Bft) S-SW 202 ° 15 min 0 min 0,152 mm 0,0 UV-I 208 W/m² 5,1 °C 7,6 °C 27,4 km/h (5 Bft)
24.02.24 15:30:00 9,9 °C 9,7 °C 10,3 °C 11,1 °C 9,4 °C 8,3 °C 6,1 °C 69,00% 0 lf 100 lf 149 cb 1002,7 hPa 0,0 mm 19,3 km/h (3 Bft) S-SW 202 ° 15 min 0 min 0,000 mm 0,0 UV-I 262 W/m² 4,5 °C 7,1 °C 38,6 km/h (6 Bft)
24.02.24 16:00:00 9,6 °C 9,2 °C 9,9 °C 8,9 °C 8,3 °C 7,8 °C 6,1 °C 70,00% 0 lf 100 lf 140 cb 1002,9 hPa 0,0 mm 17,7 km/h (3 Bft) S-SW 202 ° 15 min 0 min 0,127 mm 0,0 UV-I 119 W/m² 4,4 °C 6,6 °C 32,2 km/h (5 Bft)
24.02.24 16:30:00 9,5 °C 9,1 °C 9,6 °C 8,3 °C 7,8 °C 7,8 °C 6,1 °C 72,00% 0 lf 100 lf 137 cb 1003,3 hPa 0,0 mm 12,9 km/h (3 Bft) S 180 ° 15 min 0 min 0,000 mm 0,0 UV-I 85 W/m² 4,7 °C 7,1 °C 29,0 km/h (5 Bft)
24.02.24 17:00:00 8,8 °C 8,8 °C 9,4 °C 7,8 °C 7,2 °C 7,2 °C 6,7 °C 76,00% 0 lf 100 lf 135 cb 1003,5 hPa 0,0 mm 12,9 km/h (3 Bft) S 180 ° 15 min 0 min 0,051 mm 0,0 UV-I 55 W/m² 4,8 °C 6,7 °C 22,5 km/h (4 Bft)
24.02.24 17:30:00 8,6 °C 8,6 °C 8,8 °C 7,2 °C 7,2 °C 7,2 °C 6,7 °C 77,00% 0 lf 0 lf 133 cb 1003,8 hPa 0,0 mm 11,3 km/h (2 Bft) S-SO 157 ° 0 min 0 min 0,000 mm 0,0 UV-I 17 W/m² 4,8 °C 6,7 °C 22,5 km/h (4 Bft)
24.02.24 18:00:00 8,4 °C 8,4 °C 8,6 °C 6,7 °C 6,7 °C 6,7 °C 6,7 °C 78,00% 0 lf 0 lf 132 cb 1003,8 hPa 0,0 mm 11,3 km/h (2 Bft) S-SO 157 ° 0 min 0 min 0,025 mm 0,0 UV-I 0 W/m² 4,8 °C 6,5 °C 24,1 km/h (4 Bft)
24.02.24 18:30:00 8,1 °C 8,1 °C 8,4 °C 6,7 °C 6,1 °C 6,7 °C 6,7 °C 79,00% 0 lf 0 lf 132 cb 1004,2 hPa 0,0 mm 12,9 km/h (3 Bft) S-SO 157 ° 0 min 0 min 0,000 mm 0,0 UV-I 0 W/m² 4,7 °C 5,9 °C 24,1 km/h (4 Bft)
24.02.24 19:00:00 6,8 °C 6,8 °C 8,2 °C 5,6 °C 6,1 °C 6,7 °C 6,7 °C 83,00% 15 lf 0 lf 126 cb 1004,9 hPa 0,0 mm 17,7 km/h (3 Bft) S-SO 157 ° 0 min 0 min 0,000 mm 0,0 UV-I 0 W/m² 4,1 °C 3,6 °C 48,3 km/h (6 Bft)
24.02.24 19:30:00 6,3 °C 6,3 °C 6,8 °C 5,0 °C 6,1 °C 6,1 °C 6,7 °C 86,00% 15 lf 0 lf 127 cb 1005,4 hPa 0,0 mm 8,0 km/h (2 Bft) S 180 ° 0 min 0 min 0,000 mm 0,0 UV-I 0 W/m² 4,1 °C 4,7 °C 19,3 km/h (3 Bft)
24.02.24 20:00:00 6,2 °C 6,2 °C 6,4 °C 5,0 °C 6,1 °C 6,1 °C 6,7 °C 85,00% 15 lf 0 lf 124 cb 1005,7 hPa 0,4 mm 16,1 km/h (3 Bft) S-SW 202 ° 0 min 15 min 0,000 mm 0,0 UV-I 0 W/m² 3,9 °C 3,1 °C 32,2 km/h (5 Bft)
24.02.24 20:30:00 6,1 °C 6,1 °C 6,3 °C 5,0 °C 5,6 °C 6,1 °C 6,7 °C 84,00% 15 lf 0 lf 124 cb 1005,8 hPa 0,0 mm 12,9 km/h (3 Bft) S-SW 202 ° 0 min 0 min 0,000 mm 0,0 UV-I 0 W/m² 3,6 °C 3,4 °C 27,4 km/h (5 Bft)
24.02.24 21:00:00 6,1 °C 6,1 °C 6,2 °C 4,4 °C 5,6 °C 6,1 °C 6,7 °C 84,00% 15 lf 0 lf 126 cb 1005,9 hPa 0,0 mm 9,7 km/h (2 Bft) S-SW 202 ° 0 min 0 min 0,000 mm 0,0 UV-I 0 W/m² 3,6 °C 4,0 °C 17,7 km/h (3 Bft)
24.02.24 21:30:00 5,7 °C 5,7 °C 6,1 °C 3,9 °C 5,0 °C 5,6 °C 6,7 °C 84,00% 15 lf 0 lf 125 cb 1006,1 hPa 0,0 mm 8,0 km/h (2 Bft) S 180 ° 0 min 0 min 0,000 mm 0,0 UV-I 0 W/m² 3,2 °C 4,0 °C 20,9 km/h (4 Bft)
24.02.24 22:00:00 5,1 °C 5,1 °C 5,7 °C 3,3 °C 4,4 °C 5,6 °C 6,7 °C 85,00% 15 lf 0 lf 123 cb 1006,2 hPa 0,0 mm 8,0 km/h (2 Bft) S 180 ° 0 min 0 min 0,000 mm 0,0 UV-I 0 W/m² 2,8 °C 3,3 °C 17,7 km/h (3 Bft)
24.02.24 22:30:00 5,2 °C 5,1 °C 5,2 °C 3,9 °C 4,4 °C 5,6 °C 6,7 °C 86,00% 12 lf 0 lf 126 cb 1006,4 hPa 0,0 mm 8,0 km/h (2 Bft) S 180 ° 0 min 0 min 0,000 mm 0,0 UV-I 0 W/m² 3,1 °C 3,3 °C 24,1 km/h (4 Bft)
24.02.24 23:00:00 4,9 °C 4,9 °C 5,2 °C 3,3 °C 4,4 °C 5,0 °C 6,7 °C 86,00% 8 lf 0 lf 124 cb 1006,3 hPa 0,0 mm 11,3 km/h (2 Bft) S-SO 157 ° 0 min 0 min 0,000 mm 0,0 UV-I 0 W/m² 2,8 °C 2,3 °C 20,9 km/h (4 Bft)
24.02.24 23:30:00 4,8 °C 4,7 °C 4,9 °C 3,9 °C 4,4 °C 5,0 °C 6,7 °C 87,00% 3 lf 0 lf 128 cb 1006,2 hPa 0,0 mm 8,0 km/h (2 Bft) S-SO 157 ° 0 min 0 min 0,000 mm 0,0 UV-I 0 W/m² 2,8 °C 2,8 °C 16,1 km/h (3 Bft)
25.02.24 00:00:00 4,6 °C 4,6 °C 4,8 °C 3,3 °C 4,4 °C 5,0 °C 6,1 °C 87,00% 0 lf 0 lf 126 cb 1006,1 hPa 0,0 mm 8,0 km/h (2 Bft) SO 135 ° 0 min 0 min 0,000 mm 0,0 UV-I 0 W/m² 2,6 °C 2,7 °C 19,3 km/h (3 Bft)
_ Min-Zeit 07:30:00 08:00:00 07:30:00 07:30:00 09:30:00 09:00:00 12:30:00 15:30:00 00:00:00 00:00:00 06:30:00 04:00:00 - 08:30:00 - - - - - - - 07:00:00 08:00:00 06:30:00
Minimum _ -1,3 °C -1,3 °C -1,1 °C -2,2 °C 1,7 °C 2,2 °C 5,0 °C 69,00% 0 lf 0 lf 106 cb 999,7 hPa - 1,6 km/h (1 Bft) - - - - - - - -2,6 °C -1,3 °C 3,2 km/h (1 Bft)
_ Max-Zeit 14:00:00 14:00:00 14:00:00 13:30:00 15:30:00 15:30:00 23:30:00 09:00:00 22:00:00 17:00:00 11:00:00 22:30:00 20:00:00 15:30:00 - - 17:00:00 20:00:00 14:00:00 13:00:00 13:00:00 13:30:00 14:00:00 19:00:00
Maximum _ 11,5 °C 10,6 °C 11,5 °C 13,9 °C 9,4 °C 8,3 °C 6,7 °C 92,00% 15 lf 100 lf 176 cb 1006,4 hPa 0,4 mm 19,3 km/h - - 15 min 15 min 0,229 mm 0,6 UV-I 465 W/m² 5,7 °C 10,6 °C 48,3 km/h
S-SW (3 Bft) S-SO (6 Bft)
Durchschnitt _ 5,2 °C 4,8 °C 5,5 °C 4,9 °C 4,8 °C 5,2 °C 6,1 °C 82,00% 4 lf 42 lf 131 cb 1002,4 hPa #0,4 mm 8,3 km/h (2 Bft) S-SO - #0 min. #0 min. #0,000 mm 0,0 UV-I 0 W/m² 2,4 °C 3,5 °C 18,5 km/h (3 Bft)

                                                                                                                                                                          _________________________________________________________________________________________________________________________________________________________________________

 Anomalie Daten

ausgewähltes Produkt zur Leistung: Zeitreihen und Trends
 
ausgewähltes Produkt zur Leistung:

 

 

ausgewähltes Produkt zur Leistung: Zeitreihen und Trends

Absolut Daten

ausgewähltes Produkt zur Leistung: Zeitreihen und Trends
ausgewähltes Produkt zur Leistung: Zeitreihen und Trends

 

ausgewähltes Produkt zur Leistung: Zeitreihen und Trends

 

2009 - 2024

Unwetterwarnungen

Unwetterwarnungen

  Überblick über die aktuelle Warnlage in Deutschland

  Radarbild           

aktueller Radarfilm Deutschland

Mecklenburg Vorpommern/

Brandenburg

aktuelles Wetter und aktuelle Temperatur Region Nordost

Waldbrandgefahr   

Deutschlandkarte mit dem Tageswert des Waldbrand-Gefahrenindex WBI, heute